Nearby METAR Reports

 

KCMA - Camarillo, California, USA
Distance from station: WSW 4mi, 7km
Updated: Wed, 25-Apr-2018 9:55pm PDT
Few Clouds
Few Clouds
 Wind from W
Wind: W 5 mph , 7 km/h
Temperature: 55°F , 13°C
Dew Point: 50°F , 10°C
Humidity: 82%
Barometer: 30.04 inHg , 1017.3 hPa
Clouds: Few Clouds
Visibility: 9 miles , 14 km
Cloud details: Few Clouds 800 ft
2018/04/26 04:55 KCMA 260455Z AUTO 28004KT 9SM FEW008 13/10 A3004 RMK AO2 SLP181 T01330100
KNTD - Point Mugu Nas, California, USA
Distance from station: SSW 9mi, 15km
Updated: Wed, 25-Apr-2018 9:58pm PDT
Mostly cloudy
Mostly cloudy
 Wind from NW
Wind: NW 6 mph , 9 km/h
Temperature: 55°F , 13°C
Dew Point: 50°F , 10°C
Humidity: 82%
Barometer: 30.05 inHg , 1017.6 hPa
Clouds: Mostly cloudy
Visibility: 7 miles , 11 km
Cloud details: Mostly cloudy 800 ft
2018/04/26 04:58 KNTD 260458Z 32005KT 7SM BKN008 13/10 A3005 RMK AO2 SLP177 T01280100 CHINO N VISNO N $
 
KOXR - Oxnard, California, USA
Distance from station: WSW 10mi, 16km
Updated: Wed, 25-Apr-2018 9:51pm PDT
Mostly cloudy
Mostly cloudy
 Wind from W
Wind: W 8 mph , 13 km/h
Temperature: 55°F , 13°C
Dew Point: 52°F , 11°C
Humidity: 88%
Barometer: 30.04 inHg , 1017.3 hPa
Clouds: Mostly cloudy
Visibility: 9 miles , 14 km
Cloud details: Mostly cloudy 700 ft
2018/04/26 04:51 KOXR 260451Z AUTO 28007KT 9SM BKN007 13/11 A3004 RMK AO2 SLP173 T01280106
KVNY - Van Nuys, California, USA
Distance from station: E 31mi, 50km
Updated: Wed, 25-Apr-2018 9:51pm PDT
Clear
Clear
 Wind from E
Wind: E 3 mph , 6 km/h
Temperature: 63°F , 17°C
Dew Point: 45°F , 7°C
Humidity: 52%
Barometer: 30.02 inHg , 1016.6 hPa
Clouds: Clear
Visibility: 10 miles , 16 km
2018/04/26 04:51 KVNY 260451Z 10003KT 10SM CLR 17/07 A3002 RMK AO2 SLP158 T01720067
 
KWHP - La / Whiteman, California, USA
Distance from station: E 35mi, 56km
Updated: Wed, 25-Apr-2018 4:55pm PDT
NOT Current
Clear
Clear
 Wind from SE
Wind: SE 8 mph , 13 km/h
Temperature: 77°F , 25°C
Dew Point: 39°F , 4°C
Humidity: 26%
Barometer: 30.04 inHg , 1017.3 hPa
Clouds: Clear
Visibility: 10 miles , 16 km
2018/04/25 23:55 KWHP 252355Z 14007KT 10SM SKC 25/04 A3004
KSMO - Santa Monica, California, USA
Distance from station: ESE 36mi, 58km
Updated: Wed, 25-Apr-2018 9:51pm PDT
Overcast
Overcast
 Wind from SW
Wind: SW 7 mph , 11 km/h
Temperature: 57°F , 14°C
Dew Point: 54°F , 12°C
Humidity: 88%
Barometer: 30.04 inHg , 1017.3 hPa
Clouds: Overcast
Visibility: 10 miles , 16 km
Cloud details: Overcast 800 ft
2018/04/26 04:51 KSMO 260451Z AUTO 23006KT 10SM OVC008 14/12 A3004 RMK AO2 SLP173 T01390117 $
 
KBUR - Burbank, California, USA
Distance from station: E 38mi, 61km
Updated: Wed, 25-Apr-2018 9:53pm PDT
Clear
Clear
 Wind from SE
Wind: SE 6 mph , 9 km/h
Temperature: 61°F , 16°C
Dew Point: 52°F , 11°C
Humidity: 72%
Barometer: 30.02 inHg , 1016.6 hPa
Clouds: Clear
Visibility: 10 miles , 16 km
2018/04/26 04:53 KBUR 260453Z 13005KT 10SM CLR 16/11 A3002 RMK AO2 SLP156 T01560111
KSDB - Sandberg, California, USA
Distance from station: NNE 40mi, 64km
Updated: Wed, 25-Apr-2018 9:53pm PDT
Clear
Clear
 Wind from SW
Wind: SW 8 mph , 13 km/h
Temperature: 57°F , 14°C
Dew Point: 28°F , -2°C
Humidity: 33%
Barometer: 30.14 inHg , 1020.7 hPa
Clouds: Clear
Visibility: 10 miles , 16 km
2018/04/26 04:53 KSDB 260453Z AUTO 22007KT 10SM CLR 14/M02 A3014 RMK AO2 SLP166 T01391017
 
KLAX - Los Angeles, California, USA
Distance from station: ESE 42mi, 68km
Updated: Wed, 25-Apr-2018 9:53pm PDT
Overcast
Overcast
 Wind from WSW
Wind: WSW 12 mph , 19 km/h
Temperature: 57°F , 14°C
Dew Point: 54°F , 12°C
Humidity: 88%
Barometer: 30.05 inHg , 1017.6 hPa
Clouds: Overcast
Visibility: 10 miles , 16 km
Cloud details: Overcast 1000 ft
2018/04/26 04:53 KLAX 260453Z 25010KT 10SM OVC010 14/12 A3005 RMK AO2 SLP173 T01390117
KCQT - Los Angeles, California, USA
Distance from station: ESE 45mi, 73km
Updated: Wed, 25-Apr-2018 10:04pm PDT
Mostly cloudy
Mostly cloudy
 Wind from W
Wind: W 5 mph , 7 km/h
Temperature: 57°F , 14°C
Dew Point: 54°F , 12°C
Humidity: 88%
Barometer: 30.04 inHg , 1017.3 hPa
Clouds: Mostly cloudy
Visibility: 10 miles , 16 km
Cloud details: Mostly cloudy 1000 ft
2018/04/26 05:04 KCQT 260504Z AUTO 26004KT 10SM BKN010 14/12 A3004 RMK AO2 T01440117
 
KHHR - Hawthorne, California, USA
Distance from station: ESE 45mi, 73km
Updated: Wed, 25-Apr-2018 10:00pm PDT
Overcast
Overcast
 Wind from WSW
Wind: WSW 8 mph , 13 km/h
Temperature: 57°F , 14°C
Dew Point: 54°F , 12°C
Humidity: 88%
Barometer: 30.05 inHg , 1017.6 hPa
Clouds: Overcast
Visibility: 10 miles , 16 km
Cloud details: Overcast 1100 ft
2018/04/26 05:00 KHHR 260500Z 25007KT 10SM OVC011 14/12 A3005 RMK AO2 T01440117
KSBA - Santa Barbara, California, USA
Distance from station: WNW 49mi, 79km
Updated: Wed, 25-Apr-2018 9:53pm PDT
Clear
Clear
 Wind from calm
Wind: Calm
Temperature: 54°F , 12°C
Dew Point: 52°F , 11°C
Humidity: 94%
Barometer: 30.04 inHg , 1017.3 hPa
Clouds: Clear
Visibility: 8 miles , 13 km
2018/04/26 04:53 KSBA 260453Z 00000KT 8SM CLR 12/11 A3004 RMK AO2 SLP171 T01220106